createdAt,value
2022-12-27T00:01:00.588Z,101936.56
2022-12-27T00:03:33.246Z,101937.38
2022-12-27T00:06:16.202Z,101948.88
2022-12-27T00:08:49.536Z,101946.09
2022-12-27T00:11:27.371Z,101949.53
2022-12-27T00:14:02.804Z,101955.22
2022-12-27T00:16:35.447Z,101954.22
2022-12-27T00:19:08.002Z,101951.22
2022-12-27T00:21:40.639Z,101954.78
2022-12-27T00:24:13.277Z,101953.16
2022-12-27T00:26:45.849Z,101947.94
2022-12-27T00:29:18.492Z,101951.41
2022-12-27T00:31:51.115Z,101958.41
2022-12-27T00:34:23.945Z,101954.88
2022-12-27T00:36:56.500Z,101950.75
2022-12-27T00:39:29.093Z,101953.28
2022-12-27T00:42:01.751Z,101953.47
2022-12-27T00:44:34.520Z,101958.38
2022-12-27T00:47:07.075Z,101950.66
2022-12-27T00:49:39.620Z,101956.84
2022-12-27T00:52:12.188Z,101956.72
2022-12-27T00:54:44.712Z,101958.91
2022-12-27T00:57:17.329Z,101959.84
2022-12-27T00:59:49.900Z,101968.53
2022-12-27T01:02:22.503Z,101975.53
2022-12-27T01:04:57.255Z,101984.22
2022-12-27T01:07:30.239Z,101980.56
2022-12-27T01:10:03.234Z,101987.78
2022-12-27T01:12:36.966Z,101986.97
2022-12-27T01:15:10.538Z,101988.66
2022-12-27T01:17:43.055Z,101997.09
2022-12-27T01:20:15.676Z,101997.78
2022-12-27T01:22:48.263Z,101992.09
2022-12-27T01:25:20.820Z,101993.66
2022-12-27T01:27:53.639Z,102004.31
2022-12-27T01:30:26.107Z,102004.03
2022-12-27T01:32:58.697Z,102003.16
2022-12-27T01:35:31.277Z,102000.88
2022-12-27T01:38:03.823Z,102002.44
2022-12-27T01:40:37.519Z,101999.56
2022-12-27T01:43:18.355Z,102013.00
2022-12-27T01:45:51.046Z,102015.75
2022-12-27T01:48:25.111Z,102009.56
2022-12-27T01:51:04.632Z,102011.25
2022-12-27T01:53:43.585Z,102012.16
2022-12-27T01:56:30.055Z,102020.16
2022-12-27T01:59:09.143Z,102027.25
2022-12-27T02:01:47.742Z,102035.69
2022-12-27T02:04:26.191Z,102033.31
2022-12-27T02:07:01.435Z,102041.09
2022-12-27T02:09:49.668Z,102039.41
2022-12-27T02:12:24.046Z,102044.22
2022-12-27T02:14:56.648Z,102038.13
2022-12-27T02:17:33.444Z,102040.03
2022-12-27T02:20:22.912Z,102037.72
2022-12-27T02:23:39.197Z,102044.63
2022-12-27T02:26:35.340Z,102046.94
2022-12-27T02:30:05.127Z,102036.88
2022-12-27T02:32:50.250Z,102042.97
2022-12-27T02:35:53.711Z,102052.38
2022-12-27T02:38:41.827Z,102049.78
2022-12-27T02:41:35.499Z,102049.97
2022-12-27T02:44:26.777Z,102046.16
2022-12-27T02:47:18.099Z,102049.19
2022-12-27T02:50:09.476Z,102061.91
2022-12-27T02:53:05.201Z,102053.50
2022-12-27T02:56:34.767Z,102058.47
2022-12-27T02:59:30.627Z,102045.38
2022-12-27T03:02:57.996Z,102049.00
2022-12-27T03:06:14.286Z,102043.31
2022-12-27T03:09:39.468Z,102040.00
2022-12-27T03:12:42.502Z,102032.16
2022-12-27T03:15:56.361Z,102035.63
2022-12-27T03:18:42.581Z,102037.56
2022-12-27T03:21:55.332Z,102049.00
2022-12-27T03:24:54.056Z,102049.09
2022-12-27T03:27:36.491Z,102049.91
2022-12-27T03:30:29.467Z,102063.84
2022-12-27T03:33:14.873Z,102068.03
2022-12-27T03:36:16.075Z,102073.56
2022-12-27T03:39:03.380Z,102070.84
2022-12-27T03:42:22.900Z,102075.66
2022-12-27T03:44:55.939Z,102082.38
2022-12-27T03:47:49.056Z,102085.47
2022-12-27T03:50:33.478Z,102080.84
2022-12-27T03:53:21.330Z,102087.94
2022-12-27T03:55:54.044Z,102090.66
2022-12-27T03:58:26.610Z,102094.84
2022-12-27T04:00:59.464Z,102088.66
2022-12-27T04:03:32.036Z,102094.78
2022-12-27T04:06:04.688Z,102094.88
2022-12-27T04:08:55.835Z,102100.19
2022-12-27T04:11:47.279Z,102090.38
2022-12-27T04:14:38.595Z,102101.22
2022-12-27T04:17:29.906Z,102094.59
2022-12-27T04:20:21.375Z,102093.06
2022-12-27T04:23:12.526Z,102095.50
2022-12-27T04:26:04.301Z,102102.59
2022-12-27T04:28:55.653Z,102098.84
2022-12-27T04:31:47.255Z,102098.94
2022-12-27T04:34:38.571Z,102097.09
2022-12-27T04:37:16.419Z,102092.03
2022-12-27T04:40:08.254Z,102093.69
2022-12-27T04:43:00.919Z,102091.75
2022-12-27T04:45:52.435Z,102104.16
2022-12-27T04:48:48.631Z,102097.16
2022-12-27T04:51:47.549Z,102100.75
2022-12-27T04:54:43.122Z,102103.28
2022-12-27T04:57:15.697Z,102102.50
2022-12-27T05:00:06.775Z,102102.59
2022-12-27T05:02:40.803Z,102111.22
2022-12-27T05:05:13.494Z,102109.66
2022-12-27T05:08:04.719Z,102112.22
2022-12-27T05:10:55.909Z,102108.47
2022-12-27T05:13:47.859Z,102117.72
2022-12-27T05:16:20.968Z,102109.03
2022-12-27T05:18:53.879Z,102112.56
2022-12-27T05:21:27.172Z,102113.34
2022-12-27T05:24:18.129Z,102121.25
2022-12-27T05:26:50.731Z,102120.69
2022-12-27T05:29:23.262Z,102127.72
2022-12-27T05:31:55.756Z,102129.09
2022-12-27T05:34:28.269Z,102137.91
2022-12-27T05:37:00.768Z,102138.75
2022-12-27T05:39:33.350Z,102152.03
2022-12-27T05:42:06.351Z,102162.44
2022-12-27T05:44:38.877Z,102167.13
2022-12-27T05:47:11.422Z,102166.91
2022-12-27T05:49:43.922Z,102152.97
2022-12-27T05:52:16.494Z,102156.16
2022-12-27T05:54:49.096Z,102167.00
2022-12-27T05:57:21.728Z,102173.91
2022-12-27T05:59:54.207Z,102171.34
2022-12-27T06:02:27.025Z,102176.31
2022-12-27T06:04:59.688Z,102184.09
2022-12-27T06:07:32.226Z,102185.97
2022-12-27T06:10:07.939Z,102184.19
2022-12-27T06:12:40.530Z,102180.59
2022-12-27T06:15:13.264Z,102181.34
2022-12-27T06:17:45.809Z,102181.25
2022-12-27T06:20:19.264Z,102176.00
2022-12-27T06:22:52.259Z,102178.66
2022-12-27T06:25:24.797Z,102174.81
2022-12-27T06:27:57.351Z,102169.28
2022-12-27T06:30:35.793Z,102174.28
2022-12-27T06:33:08.955Z,102180.69
2022-12-27T06:35:41.460Z,102184.13
2022-12-27T06:38:14.020Z,102184.88
2022-12-27T06:40:46.699Z,102185.56
2022-12-27T06:43:19.221Z,102177.63
2022-12-27T06:46:05.383Z,102179.97
2022-12-27T06:48:38.578Z,102181.66
2022-12-27T06:51:13.854Z,102184.47
2022-12-27T06:53:48.034Z,102178.00
2022-12-27T06:56:23.435Z,102178.09
2022-12-27T06:58:56.040Z,102178.72
2022-12-27T07:01:28.919Z,102181.31
2022-12-27T07:04:01.926Z,102182.22
2022-12-27T07:06:37.156Z,102184.75
2022-12-27T07:09:09.708Z,102184.88
2022-12-27T07:11:42.235Z,102196.88
2022-12-27T07:14:14.747Z,102187.59
2022-12-27T07:16:49.956Z,102190.91
2022-12-27T07:19:22.542Z,102201.47
2022-12-27T07:21:55.151Z,102204.13
2022-12-27T07:24:27.644Z,102200.56
2022-12-27T07:27:02.066Z,102201.94
2022-12-27T07:29:34.674Z,102210.31
2022-12-27T07:32:07.377Z,102216.91
2022-12-27T07:34:40.047Z,102216.91
2022-12-27T07:37:12.607Z,102210.88
2022-12-27T07:39:45.378Z,102216.75
2022-12-27T07:42:18.018Z,102224.06
2022-12-27T07:44:50.596Z,102205.06
2022-12-27T07:47:23.112Z,102208.53
2022-12-27T07:49:55.657Z,102214.41
2022-12-27T07:52:28.183Z,102225.84
2022-12-27T07:55:00.748Z,102220.47
2022-12-27T07:57:33.557Z,102212.75
2022-12-27T08:00:07.254Z,102218.03
2022-12-27T08:02:39.814Z,102223.84
2022-12-27T08:05:12.506Z,102224.41
2022-12-27T08:07:45.065Z,102229.78
2022-12-27T08:10:17.750Z,102220.34
2022-12-27T08:12:50.717Z,102227.47
2022-12-27T08:15:23.280Z,102233.66
2022-12-27T08:17:55.830Z,102236.53
2022-12-27T08:20:28.852Z,102238.56
2022-12-27T08:23:01.785Z,102239.44
2022-12-27T08:25:34.522Z,102244.97
2022-12-27T08:28:11.748Z,102246.06
2022-12-27T08:30:46.052Z,102257.38
2022-12-27T08:33:19.237Z,102252.03
2022-12-27T08:35:53.931Z,102253.28
2022-12-27T08:38:26.999Z,102252.56
2022-12-27T08:40:59.654Z,102246.06
2022-12-27T08:43:32.171Z,102240.06
2022-12-27T08:46:06.346Z,102237.47
2022-12-27T08:48:38.922Z,102238.53
2022-12-27T08:51:13.843Z,102236.75
2022-12-27T08:53:50.186Z,102236.16
2022-12-27T08:56:22.987Z,102231.81
2022-12-27T08:58:55.509Z,102240.84
2022-12-27T09:01:28.606Z,102241.78
2022-12-27T09:04:01.338Z,102240.84
2022-12-27T09:06:34.190Z,102247.13
2022-12-27T09:09:06.945Z,102240.56
2022-12-27T09:11:39.519Z,102244.34
2022-12-27T09:14:12.198Z,102236.06
2022-12-27T09:16:44.732Z,102238.75
2022-12-27T09:19:17.213Z,102237.00
2022-12-27T09:21:49.786Z,102234.56
2022-12-27T09:24:22.528Z,102238.28
2022-12-27T09:26:55.057Z,102242.78
2022-12-27T09:29:27.608Z,102236.25
2022-12-27T09:32:00.175Z,102238.59
2022-12-27T09:34:32.775Z,102243.56
2022-12-27T09:37:05.425Z,102249.78
2022-12-27T09:39:38.136Z,102256.16
2022-12-27T09:43:10.500Z,102257.22
2022-12-27T09:45:54.062Z,102257.50
2022-12-27T09:48:36.688Z,102256.84
2022-12-27T09:51:29.346Z,102261.53
2022-12-27T09:54:09.881Z,102263.03
2022-12-27T09:57:10.029Z,102260.13
2022-12-27T09:59:47.999Z,102256.91
2022-12-27T10:02:25.352Z,102255.47
2022-12-27T10:08:13.008Z,102255.22
2022-12-27T10:11:06.319Z,102251.38
2022-12-27T10:13:57.392Z,102264.56
2022-12-27T10:16:48.675Z,102256.88
2022-12-27T10:19:47.722Z,102267.44
2022-12-27T10:22:47.480Z,102263.59
2022-12-27T10:25:26.235Z,102256.03
2022-12-27T10:28:10.428Z,102246.97
2022-12-27T10:30:44.703Z,102254.84
2022-12-27T10:33:27.519Z,102259.78
2022-12-27T10:36:10.239Z,102260.53
2022-12-27T10:38:42.961Z,102255.59
2022-12-27T10:42:08.487Z,102254.16
2022-12-27T10:44:41.120Z,102254.72
2022-12-27T10:47:13.907Z,102248.22
2022-12-27T10:50:12.479Z,102242.97
2022-12-27T10:52:52.655Z,102248.34
2022-12-27T10:55:39.227Z,102257.47
2022-12-27T10:58:39.631Z,102249.72
2022-12-27T11:01:31.029Z,102261.03
2022-12-27T11:04:23.403Z,102259.56
2022-12-27T11:07:04.860Z,102251.69
2022-12-27T11:09:46.254Z,102253.47
2022-12-27T11:12:32.191Z,102251.13
2022-12-27T11:15:10.973Z,102241.75
2022-12-27T11:18:01.455Z,102241.81
2022-12-27T11:20:56.049Z,102232.88
2022-12-27T11:26:17.559Z,102241.13
2022-12-27T11:28:58.684Z,102235.13
2022-12-27T11:31:48.290Z,102230.78
2022-12-27T11:34:32.927Z,102236.75
2022-12-27T11:37:19.777Z,102233.66
2022-12-27T11:40:10.373Z,102235.19
2022-12-27T11:42:48.556Z,102223.91
2022-12-27T11:45:40.621Z,102239.09
2022-12-27T11:48:35.271Z,102216.56
2022-12-27T11:51:47.249Z,102220.88
2022-12-27T11:54:44.277Z,102214.66
2022-12-27T11:57:43.379Z,102218.03
2022-12-27T12:00:22.536Z,102210.69
2022-12-27T12:03:23.137Z,102215.91
2022-12-27T12:06:40.814Z,102209.75
2022-12-27T12:09:37.501Z,102217.56
2022-12-27T12:13:22.169Z,102207.31
2022-12-27T12:16:28.966Z,102194.00
2022-12-27T12:19:25.851Z,102193.03
2022-12-27T12:22:38.456Z,102191.06
2022-12-27T12:25:48.304Z,102183.97
2022-12-27T12:28:57.789Z,102189.59
2022-12-27T12:32:23.991Z,102190.50
2022-12-27T12:35:19.099Z,102191.31
2022-12-27T12:38:03.768Z,102192.16
2022-12-27T12:41:16.448Z,102181.53
2022-12-27T12:44:41.279Z,102179.06
2022-12-27T12:47:58.385Z,102174.47
2022-12-27T12:51:02.054Z,102176.47
2022-12-27T12:54:05.383Z,102164.13
2022-12-27T12:57:13.488Z,102154.56
2022-12-27T12:59:52.302Z,102146.66
2022-12-27T13:02:45.673Z,102136.06
2022-12-27T13:05:52.723Z,102134.50
2022-12-27T13:08:45.045Z,102125.66
2022-12-27T13:11:55.624Z,102119.53
2022-12-27T13:15:04.976Z,102113.19
2022-12-27T13:18:28.425Z,102105.34
2022-12-27T13:21:39.728Z,102104.91
2022-12-27T13:24:32.118Z,102115.59
2022-12-27T13:27:19.978Z,102115.53
2022-12-27T13:30:04.509Z,102113.50
2022-12-27T13:33:03.703Z,102108.50
2022-12-27T13:36:03.744Z,102099.00
2022-12-27T13:39:06.363Z,102099.69
2022-12-27T13:41:59.618Z,102089.34
2022-12-27T13:45:01.207Z,102076.28
2022-12-27T13:48:14.714Z,102067.41
2022-12-27T13:51:04.590Z,102062.34
2022-12-27T13:54:24.070Z,102061.50
2022-12-27T13:57:18.328Z,102055.56
2022-12-27T14:00:19.949Z,102046.06
2022-12-27T14:03:20.872Z,102046.19
2022-12-27T14:06:14.179Z,102054.88
2022-12-27T14:09:25.861Z,102048.09
2022-12-27T14:12:27.440Z,102051.56
2022-12-27T14:15:06.731Z,102048.88
2022-12-27T14:18:03.627Z,102047.16
2022-12-27T14:20:57.994Z,102041.97
2022-12-27T14:23:50.659Z,102045.41
2022-12-27T14:26:52.982Z,102045.22
2022-12-27T14:29:49.814Z,102041.13
2022-12-27T14:33:06.342Z,102049.78
2022-12-27T14:36:16.886Z,102048.06
2022-12-27T14:39:18.906Z,102036.84
2022-12-27T14:42:23.661Z,102033.03
2022-12-27T14:45:37.264Z,102032.44
2022-12-27T14:48:43.198Z,102034.91
2022-12-27T14:52:12.592Z,102032.81
2022-12-27T14:55:10.909Z,102034.66
2022-12-27T14:57:55.725Z,102024.09
2022-12-27T15:00:53.278Z,102032.75
2022-12-27T15:03:55.072Z,102027.41
2022-12-27T15:07:08.221Z,102025.59
2022-12-27T15:10:07.408Z,102015.72
2022-12-27T15:13:04.092Z,102012.84
2022-12-27T15:15:48.756Z,102004.13
2022-12-27T15:18:39.644Z,102005.78
2022-12-27T15:21:52.510Z,102004.13
2022-12-27T15:24:49.250Z,102001.94
2022-12-27T15:27:50.715Z,102005.66
2022-12-27T15:30:36.872Z,102012.56
2022-12-27T15:33:50.762Z,102006.59
2022-12-27T15:36:45.369Z,102012.03
2022-12-27T15:39:33.228Z,102009.44
2022-12-27T15:42:39.748Z,102008.63
2022-12-27T15:46:04.014Z,102006.72
2022-12-27T15:49:04.441Z,102010.56
2022-12-27T15:51:44.236Z,102013.19
2022-12-27T15:55:09.108Z,102005.28
2022-12-27T15:58:18.445Z,102004.47
2022-12-27T16:01:19.158Z,101998.44
2022-12-27T16:03:58.520Z,101998.22
2022-12-27T16:06:34.346Z,101984.75
2022-12-27T16:09:35.669Z,101991.94
2022-12-27T16:12:35.611Z,101988.13
2022-12-27T16:15:57.933Z,101994.06
2022-12-27T16:18:31.131Z,101987.00
2022-12-27T16:21:11.755Z,101984.19
2022-12-27T16:23:47.354Z,101986.94
2022-12-27T16:26:30.694Z,101984.03
2022-12-27T16:29:15.618Z,101980.56
2022-12-27T16:31:51.354Z,101979.69
2022-12-27T16:34:29.320Z,101979.81
2022-12-27T16:37:02.249Z,101968.22
2022-12-27T16:40:19.091Z,101968.97
2022-12-27T16:42:57.533Z,101961.16
2022-12-27T16:45:39.349Z,101969.81
2022-12-27T16:48:30.367Z,101968.72
2022-12-27T16:51:33.031Z,101962.63
2022-12-27T16:54:25.249Z,101969.75
2022-12-27T16:57:26.189Z,101966.91
2022-12-27T17:00:37.035Z,101965.06
2022-12-27T17:03:21.108Z,101971.34
2022-12-27T17:09:09.545Z,101964.09
2022-12-27T17:11:48.123Z,101965.06
2022-12-27T17:14:30.100Z,101956.31
2022-12-27T17:17:13.759Z,101953.63
2022-12-27T17:20:13.090Z,101947.59
2022-12-27T17:22:45.697Z,101942.28
2022-12-27T17:25:35.472Z,101943.84
2022-12-27T17:28:29.179Z,101949.09
2022-12-27T17:31:47.615Z,101940.31
2022-12-27T17:35:15.514Z,101937.56
2022-12-27T17:38:04.879Z,101936.03
2022-12-27T17:41:01.384Z,101933.34
2022-12-27T17:44:16.617Z,101924.66
2022-12-27T17:47:21.284Z,101922.88
2022-12-27T17:49:58.978Z,101929.97
2022-12-27T17:52:51.192Z,101933.47
2022-12-27T17:55:46.576Z,101936.09
2022-12-27T17:58:21.271Z,101932.78
2022-12-27T18:01:01.873Z,101934.56
2022-12-27T18:03:47.499Z,101929.34
2022-12-27T18:06:20.643Z,101931.13
2022-12-27T18:08:54.130Z,101923.13
2022-12-27T18:11:31.476Z,101916.16
2022-12-27T18:14:05.826Z,101930.13
2022-12-27T18:16:40.430Z,101923.25
2022-12-27T18:19:20.305Z,101918.16
2022-12-27T18:22:02.626Z,101913.69
2022-12-27T18:24:39.958Z,101905.69
2022-12-27T18:27:23.870Z,101894.44
2022-12-27T18:29:56.644Z,101888.31
2022-12-27T18:32:29.438Z,101883.69
2022-12-27T18:35:03.393Z,101884.59
2022-12-27T18:37:39.653Z,101878.31
2022-12-27T18:40:24.019Z,101866.03
2022-12-27T18:42:56.828Z,101878.91
2022-12-27T18:45:33.556Z,101875.66
2022-12-27T18:48:14.039Z,101878.13
2022-12-27T18:50:53.528Z,101868.72
2022-12-27T18:53:32.490Z,101861.59
2022-12-27T18:56:15.698Z,101859.03
2022-12-27T18:59:32.550Z,101872.81
2022-12-27T19:02:37.200Z,101859.63
2022-12-27T19:05:18.991Z,101853.38
2022-12-27T19:07:56.970Z,101851.66
2022-12-27T19:10:32.182Z,101842.69
2022-12-27T19:13:05.196Z,101841.09
2022-12-27T19:15:44.098Z,101846.06
2022-12-27T19:18:33.659Z,101833.78
2022-12-27T19:21:06.714Z,101838.13
2022-12-27T19:23:49.034Z,101837.03
2022-12-27T19:26:31.214Z,101824.88
2022-12-27T19:29:16.183Z,101818.59
2022-12-27T19:32:01.095Z,101817.78
2022-12-27T19:34:45.819Z,101818.66
2022-12-27T19:37:19.373Z,101819.50
2022-12-27T19:39:52.884Z,101812.38
2022-12-27T19:42:33.333Z,101807.16
2022-12-27T19:45:06.621Z,101813.22
2022-12-27T19:47:39.888Z,101805.25
2022-12-27T19:50:12.624Z,101806.31
2022-12-27T19:52:47.427Z,101799.16
2022-12-27T19:55:26.729Z,101789.28
2022-12-27T19:57:59.294Z,101782.75
2022-12-27T20:00:31.995Z,101773.84
2022-12-27T20:03:05.681Z,101771.88
2022-12-27T20:06:13.999Z,101763.91
2022-12-27T20:08:38.162Z,101749.31
2022-12-27T20:11:21.294Z,101760.63
2022-12-27T20:13:54.641Z,101754.31
2022-12-27T20:16:27.455Z,101751.69
2022-12-27T20:19:01.939Z,101750.22
2022-12-27T20:21:34.657Z,101744.78
2022-12-27T20:24:12.291Z,101742.22
2022-12-27T20:26:45.065Z,101745.00
2022-12-27T20:29:20.894Z,101739.72
2022-12-27T20:31:53.926Z,101729.31
2022-12-27T20:34:26.593Z,101722.25
2022-12-27T20:37:00.857Z,101718.00
2022-12-27T20:39:33.477Z,101714.63
2022-12-27T20:42:06.850Z,101713.69
2022-12-27T20:44:40.252Z,101708.63
2022-12-27T20:47:13.099Z,101704.25
2022-12-27T20:49:45.825Z,101694.38
2022-12-27T20:52:19.237Z,101701.81
2022-12-27T20:54:51.920Z,101697.22
2022-12-27T20:57:24.944Z,101692.88
2022-12-27T20:59:57.516Z,101687.78
2022-12-27T21:02:30.614Z,101680.03
2022-12-27T21:05:03.720Z,101683.47
2022-12-27T21:07:36.740Z,101686.97
2022-12-27T21:10:10.859Z,101680.66
2022-12-27T21:12:44.735Z,101684.38
2022-12-27T21:15:17.396Z,101677.28
2022-12-27T21:17:53.125Z,101665.97
2022-12-27T21:20:25.823Z,101669.56
2022-12-27T21:22:58.542Z,101668.72
2022-12-27T21:25:32.591Z,101667.03
2022-12-27T21:28:05.588Z,101657.34
2022-12-27T21:30:38.138Z,101658.25
2022-12-27T21:33:10.864Z,101654.81
2022-12-27T21:35:43.434Z,101645.25
2022-12-27T21:38:16.108Z,101647.97
2022-12-27T21:41:01.555Z,101646.78
2022-12-27T21:43:34.763Z,101641.59
2022-12-27T21:46:13.002Z,101627.69
2022-12-27T21:48:46.897Z,101625.00
2022-12-27T21:51:20.149Z,101623.38
2022-12-27T21:53:53.975Z,101632.88
2022-12-27T21:56:27.362Z,101628.50
2022-12-27T21:59:01.858Z,101618.19
2022-12-27T22:01:50.339Z,101619.97
2022-12-27T22:04:24.855Z,101613.88
2022-12-27T22:06:57.502Z,101601.56
2022-12-27T22:09:30.176Z,101590.22
2022-12-27T22:12:02.855Z,101591.03
2022-12-27T22:14:37.150Z,101581.44
2022-12-27T22:17:10.007Z,101574.44
2022-12-27T22:19:42.635Z,101572.53
2022-12-27T22:22:15.249Z,101570.19
2022-12-27T22:24:48.191Z,101564.94
2022-12-27T22:27:20.890Z,101563.16
2022-12-27T22:29:53.496Z,101563.28
2022-12-27T22:32:26.127Z,101554.50
2022-12-27T22:34:58.787Z,101550.91
2022-12-27T22:37:31.536Z,101540.50
2022-12-27T22:40:04.821Z,101537.94
2022-12-27T22:42:51.463Z,101550.09
2022-12-27T22:45:24.416Z,101529.19
2022-12-27T22:47:57.730Z,101528.38
2022-12-27T22:50:30.360Z,101524.03
2022-12-27T22:53:03.689Z,101524.84
2022-12-27T22:55:41.341Z,101523.19
2022-12-27T22:58:14.000Z,101509.97
2022-12-27T23:00:46.635Z,101496.91
2022-12-27T23:03:19.246Z,101496.78
2022-12-27T23:06:01.422Z,101492.41
2022-12-27T23:08:34.140Z,101491.66
2022-12-27T23:11:32.742Z,101485.56
2022-12-27T23:14:10.916Z,101468.03
2022-12-27T23:16:49.475Z,101467.13
2022-12-27T23:19:24.324Z,101466.25
2022-12-27T23:21:56.924Z,101451.44
2022-12-27T23:24:29.655Z,101449.56
2022-12-27T23:27:03.454Z,101453.94
2022-12-27T23:29:36.141Z,101453.00
2022-12-27T23:32:08.766Z,101433.84
2022-12-27T23:34:41.407Z,101426.91
2022-12-27T23:37:14.241Z,101431.34
2022-12-27T23:39:46.877Z,101425.97
2022-12-27T23:42:19.458Z,101417.28
2022-12-27T23:44:52.606Z,101414.59
2022-12-27T23:47:25.359Z,101397.81
2022-12-27T23:49:57.945Z,101407.56
2022-12-27T23:52:30.640Z,101392.63
2022-12-27T23:55:04.112Z,101391.72
2022-12-27T23:57:37.049Z,101384.78
